createdAt,value
2019-05-02T00:02:32.023Z,10.40
2019-05-02T00:05:04.281Z,10.40
2019-05-02T00:07:35.704Z,10.30
2019-05-02T00:10:09.245Z,10.30
2019-05-02T00:12:40.416Z,10.20
2019-05-02T00:15:12.841Z,10.20
2019-05-02T00:17:44.283Z,10.10
2019-05-02T00:20:21.188Z,10.10
2019-05-02T00:22:52.169Z,10.00
2019-05-02T00:25:24.064Z,9.90
2019-05-02T00:27:55.183Z,9.90
2019-05-02T00:30:30.067Z,9.80
2019-05-02T00:32:59.638Z,9.70
2019-05-02T00:35:31.867Z,9.70
2019-05-02T00:38:03.906Z,9.70
2019-05-02T00:40:35.132Z,9.50
2019-05-02T00:43:06.317Z,9.50
2019-05-02T00:45:37.436Z,9.40
2019-05-02T00:48:24.362Z,9.30
2019-05-02T00:50:55.684Z,9.30
2019-05-02T00:53:26.716Z,9.20
2019-05-02T00:55:57.794Z,9.10
2019-05-02T00:58:31.924Z,9.00
2019-05-02T01:01:38.886Z,9.00
2019-05-02T01:04:16.493Z,8.90
2019-05-02T01:06:49.396Z,8.80
2019-05-02T01:09:20.203Z,8.70
2019-05-02T01:11:51.320Z,8.60
2019-05-02T01:14:22.447Z,8.50
2019-05-02T01:16:54.335Z,8.40
2019-05-02T01:19:26.228Z,8.30
2019-05-02T01:21:57.333Z,8.30
2019-05-02T01:24:28.413Z,8.20
2019-05-02T01:27:18.424Z,8.20
2019-05-02T01:30:01.548Z,8.20
2019-05-02T01:32:47.032Z,8.20
2019-05-02T01:35:39.843Z,8.20
2019-05-02T01:38:26.314Z,8.20
2019-05-02T01:40:56.696Z,8.20
2019-05-02T01:43:30.541Z,8.20
2019-05-02T01:46:01.815Z,8.20
2019-05-02T01:48:32.870Z,8.30
2019-05-02T01:51:10.096Z,8.30
2019-05-02T01:53:36.615Z,8.30
2019-05-02T01:56:07.637Z,8.30
2019-05-02T01:58:38.765Z,8.30
2019-05-02T02:01:09.913Z,8.30
2019-05-02T02:03:45.728Z,8.40
2019-05-02T02:06:14.117Z,8.40
2019-05-02T02:08:45.138Z,8.40
2019-05-02T02:11:16.209Z,8.30
2019-05-02T02:13:47.224Z,8.30
2019-05-02T02:16:18.291Z,8.30
2019-05-02T02:19:03.509Z,8.40
2019-05-02T02:21:50.706Z,8.40
2019-05-02T02:24:28.507Z,8.50
2019-05-02T02:26:59.585Z,8.50
2019-05-02T02:29:30.669Z,8.60
2019-05-02T02:32:01.706Z,8.50
2019-05-02T02:34:32.877Z,8.50
2019-05-02T02:37:05.541Z,8.50
2019-05-02T02:39:36.585Z,8.50
2019-05-02T02:42:07.813Z,8.60
2019-05-02T02:44:48.988Z,8.70
2019-05-02T02:47:21.178Z,8.80
2019-05-02T02:49:55.787Z,8.80
2019-05-02T02:52:25.239Z,8.80
2019-05-02T02:54:56.283Z,8.80
2019-05-02T02:57:28.517Z,8.80
2019-05-02T03:00:07.664Z,8.70
2019-05-02T03:02:33.487Z,8.70
2019-05-02T03:05:05.263Z,8.60
2019-05-02T03:07:36.315Z,8.60
2019-05-02T03:10:08.412Z,8.60
2019-05-02T03:12:56.831Z,8.50
2019-05-02T03:15:30.159Z,8.40
2019-05-02T03:18:02.130Z,8.40
2019-05-02T03:20:39.798Z,8.40
2019-05-02T03:23:06.050Z,8.50
2019-05-02T03:25:49.651Z,8.60
2019-05-02T03:28:17.777Z,8.60
2019-05-02T03:30:43.042Z,8.70
2019-05-02T03:33:14.268Z,8.70
2019-05-02T03:35:48.982Z,8.80
2019-05-02T03:38:18.064Z,8.80
2019-05-02T03:40:49.817Z,8.80
2019-05-02T03:43:25.812Z,8.90
2019-05-02T03:45:54.733Z,8.90
2019-05-02T03:48:27.786Z,9.00
2019-05-02T03:50:58.469Z,8.90
2019-05-02T03:53:29.649Z,8.90
2019-05-02T03:56:10.437Z,8.90
2019-05-02T03:58:33.822Z,8.90
2019-05-02T04:01:04.951Z,8.90
2019-05-02T04:03:41.046Z,8.90
2019-05-02T04:06:13.664Z,8.90
2019-05-02T04:08:43.132Z,9.00
2019-05-02T04:11:25.795Z,9.00
2019-05-02T04:13:57.566Z,9.10
2019-05-02T04:16:29.952Z,9.10
2019-05-02T04:19:05.562Z,9.20
2019-05-02T04:21:37.298Z,9.30
2019-05-02T04:24:13.810Z,9.50
2019-05-02T04:26:52.219Z,9.60
2019-05-02T04:29:15.125Z,9.70
2019-05-02T04:31:46.276Z,9.80
2019-05-02T04:34:17.857Z,9.80
2019-05-02T04:36:59.905Z,9.90
2019-05-02T04:39:23.106Z,10.00
2019-05-02T04:41:54.196Z,10.00
2019-05-02T04:44:29.778Z,10.10
2019-05-02T04:47:08.704Z,10.20
2019-05-02T04:49:35.755Z,10.30
2019-05-02T04:52:10.556Z,10.40
2019-05-02T04:54:38.931Z,10.50
2019-05-02T04:57:08.986Z,10.60
2019-05-02T04:59:40.084Z,10.70
2019-05-02T05:02:11.191Z,10.80
2019-05-02T05:04:46.371Z,10.80
2019-05-02T05:07:31.143Z,10.90
2019-05-02T05:10:03.026Z,11.00
2019-05-02T05:12:32.607Z,11.10
2019-05-02T05:15:07.692Z,11.20
2019-05-02T05:17:38.184Z,11.20
2019-05-02T05:20:14.228Z,11.30
2019-05-02T05:22:44.378Z,11.30
2019-05-02T05:25:21.311Z,11.40
2019-05-02T05:27:55.734Z,11.50
2019-05-02T05:30:24.640Z,11.60
2019-05-02T05:32:55.751Z,11.70
2019-05-02T05:35:28.131Z,11.80
2019-05-02T05:37:59.307Z,11.90
2019-05-02T05:40:32.053Z,12.00
2019-05-02T05:43:14.146Z,12.00
2019-05-02T05:45:48.709Z,12.10
2019-05-02T05:48:09.624Z,12.20
2019-05-02T05:50:42.721Z,12.20
2019-05-02T05:53:17.198Z,12.30
2019-05-02T05:55:47.331Z,12.40
2019-05-02T05:58:19.593Z,12.50
2019-05-02T06:00:54.002Z,12.60
2019-05-02T06:03:24.456Z,12.60
2019-05-02T06:05:57.583Z,12.70
2019-05-02T06:08:29.245Z,12.80
2019-05-02T06:11:00.543Z,12.90
2019-05-02T06:13:32.186Z,13.00
2019-05-02T06:16:05.494Z,13.10
2019-05-02T06:18:41.887Z,13.30
2019-05-02T06:21:10.758Z,13.30
2019-05-02T06:23:42.276Z,13.20
2019-05-02T06:26:15.301Z,13.20
2019-05-02T06:28:47.480Z,13.30
2019-05-02T06:31:18.819Z,13.30
2019-05-02T06:33:50.590Z,13.30
2019-05-02T06:36:23.061Z,13.50
2019-05-02T06:38:56.695Z,13.50
2019-05-02T06:41:27.481Z,13.70
2019-05-02T06:43:58.694Z,13.80
2019-05-02T06:46:29.857Z,13.80
2019-05-02T06:49:00.938Z,13.90
2019-05-02T06:51:32.391Z,14.00
2019-05-02T06:54:04.377Z,14.10
2019-05-02T06:56:35.547Z,14.30
2019-05-02T06:59:13.045Z,14.40
2019-05-02T07:01:41.673Z,14.40
2019-05-02T07:04:17.554Z,14.40
2019-05-02T07:06:58.139Z,14.50
2019-05-02T07:09:20.921Z,14.50
2019-05-02T07:11:57.303Z,14.60
2019-05-02T07:14:25.658Z,14.60
2019-05-02T07:17:05.698Z,14.70
2019-05-02T07:19:39.864Z,14.80
2019-05-02T07:22:11.163Z,14.80
2019-05-02T07:24:42.315Z,14.90
2019-05-02T07:27:13.477Z,15.00
2019-05-02T07:29:45.335Z,15.00
2019-05-02T07:32:19.455Z,15.00
2019-05-02T07:34:50.261Z,14.90
2019-05-02T07:37:21.403Z,14.90
2019-05-02T07:39:53.032Z,15.10
2019-05-02T07:42:24.630Z,15.30
2019-05-02T07:44:55.767Z,15.70
2019-05-02T07:47:28.724Z,15.80
2019-05-02T07:49:59.647Z,15.70
2019-05-02T07:52:33.687Z,15.70
2019-05-02T07:55:06.305Z,15.80
2019-05-02T07:57:37.146Z,15.80
2019-05-02T08:00:09.688Z,15.90
2019-05-02T08:02:42.971Z,15.70
2019-05-02T08:05:15.752Z,15.50
2019-05-02T08:07:47.651Z,15.70
2019-05-02T08:10:23.749Z,15.90
2019-05-02T08:12:54.617Z,16.00
2019-05-02T08:15:25.763Z,16.00
2019-05-02T08:17:57.611Z,16.10
2019-05-02T08:20:29.699Z,16.30
2019-05-02T08:23:00.849Z,16.40
2019-05-02T08:25:33.133Z,16.30
2019-05-02T08:28:16.058Z,16.20
2019-05-02T08:30:50.977Z,16.20
2019-05-02T08:33:22.291Z,16.40
2019-05-02T08:35:53.408Z,16.50
2019-05-02T08:38:24.579Z,16.50
2019-05-02T08:40:55.735Z,16.60
2019-05-02T08:43:26.843Z,17.00
2019-05-02T08:45:57.934Z,17.40
2019-05-02T08:48:29.239Z,17.40
2019-05-02T08:51:00.412Z,17.40
2019-05-02T08:53:31.495Z,17.40
2019-05-02T08:56:02.595Z,17.40
2019-05-02T08:58:33.762Z,17.40
2019-05-02T09:01:09.272Z,17.20
2019-05-02T09:03:54.777Z,17.30
2019-05-02T09:06:10.335Z,17.40
2019-05-02T09:08:41.414Z,17.60
2019-05-02T09:11:14.183Z,17.90
2019-05-02T09:13:46.086Z,18.00
2019-05-02T09:16:21.577Z,18.00
2019-05-02T09:18:53.792Z,18.30
2019-05-02T09:21:26.751Z,18.40
2019-05-02T09:23:55.781Z,18.30
2019-05-02T09:26:36.183Z,18.20
2019-05-02T09:29:03.758Z,18.10
2019-05-02T09:31:36.665Z,18.20
2019-05-02T09:34:05.272Z,18.40
2019-05-02T09:36:38.190Z,18.50
2019-05-02T09:39:09.424Z,18.60
2019-05-02T09:41:41.914Z,18.50
2019-05-02T09:44:14.588Z,18.60
2019-05-02T09:46:47.540Z,18.70
2019-05-02T09:49:18.544Z,18.70
2019-05-02T09:51:50.431Z,18.90
2019-05-02T09:54:23.134Z,18.90
2019-05-02T09:56:54.488Z,18.80
2019-05-02T09:59:33.094Z,18.90
2019-05-02T10:02:08.013Z,19.00
2019-05-02T10:04:42.096Z,19.00
2019-05-02T10:07:15.200Z,19.20
2019-05-02T10:09:44.696Z,19.50
2019-05-02T10:12:15.860Z,19.70
2019-05-02T10:14:46.912Z,19.90
2019-05-02T10:17:18.555Z,19.80
2019-05-02T10:19:54.947Z,19.80
2019-05-02T10:22:23.934Z,19.80
2019-05-02T10:24:55.612Z,19.80
2019-05-02T10:27:26.729Z,20.00
2019-05-02T10:30:11.056Z,19.90
2019-05-02T10:32:32.441Z,19.60
2019-05-02T10:35:03.810Z,19.30
2019-05-02T10:37:38.344Z,19.40
2019-05-02T10:40:13.504Z,19.50
2019-05-02T10:42:41.912Z,19.50
2019-05-02T10:45:16.671Z,19.60
2019-05-02T10:47:46.383Z,19.50
2019-05-02T10:50:22.528Z,19.50
2019-05-02T10:52:54.656Z,19.60
2019-05-02T10:55:25.779Z,19.70
2019-05-02T10:57:57.171Z,19.50
2019-05-02T11:00:34.246Z,19.60
2019-05-02T11:03:24.640Z,19.50
2019-05-02T11:06:05.406Z,19.30
2019-05-02T11:08:32.088Z,19.30
2019-05-02T11:11:06.105Z,19.20
2019-05-02T11:13:53.338Z,19.40
2019-05-02T11:16:34.196Z,19.40
2019-05-02T11:19:08.586Z,19.70
2019-05-02T11:21:52.273Z,19.90
2019-05-02T11:24:14.382Z,20.20
2019-05-02T11:26:45.178Z,20.50
2019-05-02T11:29:16.306Z,20.60
2019-05-02T11:31:47.464Z,20.40
2019-05-02T11:34:18.614Z,20.00
2019-05-02T11:36:49.717Z,20.00
2019-05-02T11:39:31.267Z,20.00
2019-05-02T11:41:55.486Z,19.50
2019-05-02T11:44:26.794Z,19.40
2019-05-02T11:46:57.905Z,19.50
2019-05-02T11:49:28.989Z,19.80
2019-05-02T11:52:02.320Z,20.10
2019-05-02T11:54:32.904Z,20.60
2019-05-02T11:57:03.980Z,20.80
2019-05-02T11:59:35.122Z,20.70
2019-05-02T12:02:25.101Z,20.40
2019-05-02T12:04:56.165Z,20.40
2019-05-02T12:07:27.540Z,20.40
2019-05-02T12:10:02.632Z,20.50
2019-05-02T12:12:36.271Z,20.60
2019-05-02T12:15:08.745Z,20.30
2019-05-02T12:17:41.858Z,20.00
2019-05-02T12:20:12.887Z,20.10
2019-05-02T12:22:44.027Z,20.20
2019-05-02T12:25:15.158Z,20.40
2019-05-02T12:27:46.284Z,20.40
2019-05-02T12:30:17.372Z,20.40
2019-05-02T12:32:50.123Z,20.40
2019-05-02T12:35:22.471Z,20.40
2019-05-02T12:37:55.159Z,20.50
2019-05-02T12:40:26.481Z,20.50
2019-05-02T12:42:57.659Z,20.60
2019-05-02T12:45:28.922Z,20.60
2019-05-02T12:48:02.243Z,20.80
2019-05-02T12:50:32.956Z,20.70
2019-05-02T12:53:04.226Z,20.60
2019-05-02T12:55:35.435Z,20.70
2019-05-02T12:58:06.662Z,20.80
2019-05-02T13:00:37.800Z,20.80
2019-05-02T13:03:14.386Z,20.80
2019-05-02T13:05:45.586Z,20.60
2019-05-02T13:08:16.741Z,20.60
2019-05-02T13:11:02.271Z,20.90
2019-05-02T13:13:32.653Z,21.10
2019-05-02T13:16:04.203Z,21.60
2019-05-02T13:18:37.212Z,21.60
2019-05-02T13:21:13.338Z,21.50
2019-05-02T13:23:58.069Z,21.10
2019-05-02T13:26:29.185Z,21.10
2019-05-02T13:29:02.289Z,21.70
2019-05-02T13:31:48.894Z,21.90
2019-05-02T13:34:48.587Z,22.20
2019-05-02T13:37:19.706Z,22.20
2019-05-02T13:39:58.923Z,21.80
2019-05-02T13:42:30.259Z,21.90
2019-05-02T13:45:08.145Z,21.80
2019-05-02T13:47:39.272Z,21.70
2019-05-02T13:50:12.850Z,21.80
2019-05-02T13:52:44.941Z,22.00
2019-05-02T13:55:18.761Z,22.10
2019-05-02T13:57:49.925Z,22.20
2019-05-02T14:00:28.269Z,22.20
2019-05-02T14:02:59.580Z,21.90
2019-05-02T14:05:31.803Z,21.80
2019-05-02T14:08:19.334Z,21.80
2019-05-02T14:10:53.532Z,21.90
2019-05-02T14:13:24.589Z,21.90
2019-05-02T14:15:55.708Z,21.90
2019-05-02T14:18:28.932Z,22.00
2019-05-02T14:20:59.886Z,22.20
2019-05-02T14:23:31.973Z,22.50
2019-05-02T14:26:04.598Z,22.30
2019-05-02T14:28:36.390Z,22.30
2019-05-02T14:31:07.802Z,22.30
2019-05-02T14:33:42.274Z,21.90
2019-05-02T14:36:13.658Z,21.90
2019-05-02T14:38:44.826Z,22.10
2019-05-02T14:41:22.727Z,22.10
2019-05-02T14:43:57.224Z,22.50
2019-05-02T14:46:29.216Z,22.80
2019-05-02T14:49:02.778Z,22.80
2019-05-02T14:51:36.770Z,22.90
2019-05-02T14:54:18.055Z,22.80
2019-05-02T14:57:33.946Z,22.70
2019-05-02T15:00:18.816Z,22.60
2019-05-02T15:03:06.194Z,22.20
2019-05-02T15:05:44.160Z,22.30
2019-05-02T15:08:32.126Z,22.60
2019-05-02T15:11:08.662Z,22.90
2019-05-02T15:13:43.603Z,23.30
2019-05-02T15:16:17.555Z,23.20
2019-05-02T15:18:53.167Z,22.80
2019-05-02T15:21:25.184Z,22.10
2019-05-02T15:23:57.996Z,21.90
2019-05-02T15:26:31.302Z,21.70
2019-05-02T15:29:01.984Z,21.90
2019-05-02T15:31:36.247Z,22.10
2019-05-02T15:34:15.173Z,22.50
2019-05-02T15:36:46.468Z,22.80
2019-05-02T15:41:52.307Z,22.60
2019-05-02T15:44:23.502Z,22.60
2019-05-02T15:46:58.389Z,22.60
2019-05-02T15:49:32.032Z,22.80
2019-05-02T15:52:03.407Z,22.60
2019-05-02T15:54:34.443Z,22.70
2019-05-02T15:57:05.850Z,22.90
2019-05-02T15:59:41.905Z,22.80
2019-05-02T16:02:17.685Z,22.50
2019-05-02T16:04:47.926Z,22.10
2019-05-02T16:07:19.066Z,22.10
2019-05-02T16:09:51.627Z,22.20
2019-05-02T16:12:27.125Z,22.40
2019-05-02T16:14:56.824Z,22.30
2019-05-02T16:17:30.480Z,22.40
2019-05-02T16:20:18.380Z,21.90
2019-05-02T16:22:50.034Z,21.50
2019-05-02T16:25:24.495Z,21.50
2019-05-02T16:27:57.615Z,21.60
2019-05-02T16:30:27.798Z,21.20
2019-05-02T16:33:02.487Z,20.80
2019-05-02T16:35:34.579Z,20.30
2019-05-02T16:38:06.091Z,19.70
2019-05-02T16:40:37.202Z,19.30
2019-05-02T16:43:08.278Z,18.90
2019-05-02T16:45:39.506Z,18.60
2019-05-02T16:48:12.034Z,18.30
2019-05-02T16:50:44.986Z,18.10
2019-05-02T16:53:17.188Z,18.10
2019-05-02T16:55:48.667Z,18.50
2019-05-02T16:58:19.794Z,18.90
2019-05-02T17:00:52.648Z,19.50
2019-05-02T17:03:26.431Z,20.20
2019-05-02T17:05:56.462Z,20.70
2019-05-02T17:08:36.188Z,20.70
2019-05-02T17:11:27.913Z,20.40
2019-05-02T17:13:57.729Z,20.00
2019-05-02T17:16:28.997Z,20.00
2019-05-02T17:19:01.678Z,19.90
2019-05-02T17:21:52.318Z,19.90
2019-05-02T17:24:05.831Z,19.80
2019-05-02T17:26:38.155Z,19.70
2019-05-02T17:29:09.504Z,19.60
2019-05-02T17:31:42.587Z,19.20
2019-05-02T17:34:14.858Z,18.70
2019-05-02T17:36:46.176Z,18.40
2019-05-02T17:39:18.802Z,18.00
2019-05-02T17:41:52.243Z,17.80
2019-05-02T17:44:24.661Z,17.70
2019-05-02T17:46:58.537Z,17.60
2019-05-02T17:49:34.895Z,17.40
2019-05-02T17:52:21.005Z,17.00
2019-05-02T17:54:52.859Z,16.70
2019-05-02T17:57:28.436Z,16.30
2019-05-02T17:59:57.145Z,16.00
2019-05-02T18:02:29.133Z,15.70
2019-05-02T18:05:02.637Z,15.40
2019-05-02T18:07:36.039Z,15.10
2019-05-02T18:10:14.470Z,14.80
2019-05-02T18:12:39.859Z,14.70
2019-05-02T18:15:12.002Z,14.60
2019-05-02T18:17:43.328Z,14.40
2019-05-02T18:20:14.772Z,14.30
2019-05-02T18:22:49.058Z,14.10
2019-05-02T18:25:25.124Z,14.00
2019-05-02T18:27:55.924Z,13.90
2019-05-02T18:30:27.154Z,13.80
2019-05-02T18:33:05.260Z,13.70
2019-05-02T18:35:37.087Z,13.60
2019-05-02T18:38:06.636Z,13.50
2019-05-02T18:40:39.299Z,13.40
2019-05-02T18:43:10.632Z,13.30
2019-05-02T18:45:42.624Z,13.20
2019-05-02T18:48:15.078Z,13.10
2019-05-02T18:50:49.890Z,13.10
2019-05-02T18:53:24.333Z,13.00
2019-05-02T18:55:52.251Z,13.00
2019-05-02T18:58:25.059Z,12.90
2019-05-02T19:00:56.263Z,12.90
2019-05-02T19:03:27.532Z,12.80
2019-05-02T19:05:59.685Z,12.80
2019-05-02T19:08:45.390Z,12.70
2019-05-02T19:11:12.064Z,12.70
2019-05-02T19:13:42.810Z,12.60
2019-05-02T19:16:12.948Z,12.60
2019-05-02T19:18:49.096Z,12.60
2019-05-02T19:21:18.134Z,12.60
2019-05-02T19:23:51.704Z,12.60
2019-05-02T19:26:22.691Z,12.50
2019-05-02T19:29:08.573Z,12.50
2019-05-02T19:31:46.225Z,12.50
2019-05-02T19:34:22.841Z,12.40
2019-05-02T19:36:49.927Z,12.40
2019-05-02T19:39:23.949Z,12.30
2019-05-02T19:41:54.067Z,12.20
2019-05-02T19:44:29.085Z,12.10
2019-05-02T19:46:58.583Z,12.10
2019-05-02T19:49:29.773Z,12.00
2019-05-02T19:52:02.221Z,12.00
2019-05-02T19:54:39.461Z,12.00
2019-05-02T19:57:09.406Z,12.00
2019-05-02T19:59:40.604Z,11.90
2019-05-02T20:02:12.055Z,11.90
2019-05-02T20:04:44.341Z,11.80
2019-05-02T20:07:15.824Z,11.70
2019-05-02T20:09:47.485Z,11.60
2019-05-02T20:12:23.657Z,11.50
2019-05-02T20:15:02.582Z,11.40
2019-05-02T20:17:37.873Z,11.30
2019-05-02T20:20:40.544Z,11.30
2019-05-02T20:23:17.944Z,11.20
2019-05-02T20:25:47.878Z,11.10
2019-05-02T20:28:19.205Z,10.90
2019-05-02T20:30:52.634Z,10.80
2019-05-02T20:33:25.079Z,10.70
2019-05-02T20:35:57.700Z,10.60
2019-05-02T20:38:28.975Z,10.40
2019-05-02T20:41:02.910Z,10.30
2019-05-02T20:43:34.465Z,10.20
2019-05-02T20:46:05.986Z,10.10
2019-05-02T20:48:37.354Z,10.10
2019-05-02T20:51:08.593Z,10.00
2019-05-02T20:53:41.854Z,9.90
2019-05-02T20:56:12.825Z,9.80
2019-05-02T20:58:44.018Z,9.70
2019-05-02T21:01:15.210Z,9.50
2019-05-02T21:03:46.443Z,9.40
2019-05-02T21:06:42.775Z,9.20
2019-05-02T21:09:32.437Z,9.10
2019-05-02T21:12:06.073Z,9.00
2019-05-02T21:14:38.156Z,8.90
2019-05-02T21:17:09.434Z,8.70
2019-05-02T21:33:02.758Z,8.60
2019-05-02T21:35:35.440Z,8.20
2019-05-02T21:38:06.581Z,8.10
2019-05-02T21:40:37.740Z,7.90
2019-05-02T21:43:09.087Z,7.80
2019-05-02T21:45:42.113Z,7.70
2019-05-02T21:48:13.414Z,7.70
2019-05-02T21:50:49.830Z,7.60
2019-05-02T21:53:37.429Z,7.50
2019-05-02T21:56:26.128Z,7.40
2019-05-02T21:59:13.076Z,7.30
2019-05-02T22:01:55.137Z,7.20
2019-05-02T22:04:26.603Z,7.10
2019-05-02T22:06:58.130Z,7.00
2019-05-02T22:09:29.818Z,7.00
2019-05-02T22:12:01.275Z,6.90
2019-05-02T22:14:32.969Z,6.80
2019-05-02T22:17:05.713Z,6.80
2019-05-02T22:19:37.123Z,6.70
2019-05-02T22:22:08.400Z,6.70
2019-05-02T22:24:39.710Z,6.60
2019-05-02T22:27:12.389Z,6.50
2019-05-02T22:29:43.831Z,6.50
2019-05-02T22:32:15.132Z,6.40
2019-05-02T22:34:46.490Z,6.40
2019-05-02T22:37:19.199Z,6.40
2019-05-02T22:39:57.611Z,6.30
2019-05-02T22:42:29.080Z,6.30
2019-05-02T22:45:01.598Z,6.30
2019-05-02T22:47:34.657Z,6.20
2019-05-02T22:50:08.143Z,6.20
2019-05-02T22:52:41.625Z,6.10
2019-05-02T22:55:13.964Z,6.10
2019-05-02T22:57:45.450Z,6.00
2019-05-02T23:00:18.270Z,6.00
2019-05-02T23:02:49.609Z,5.90
2019-05-02T23:05:21.646Z,5.90
2019-05-02T23:07:52.815Z,5.80
2019-05-02T23:10:24.310Z,5.80
2019-05-02T23:12:55.642Z,5.80
2019-05-02T23:15:26.870Z,5.80
2019-05-02T23:17:58.181Z,5.70
2019-05-02T23:20:29.506Z,5.70
2019-05-02T23:23:01.871Z,5.70
2019-05-02T23:25:59.321Z,5.60
2019-05-02T23:28:31.857Z,5.60
2019-05-02T23:31:03.382Z,5.60
2019-05-02T23:33:52.098Z,5.50
2019-05-02T23:36:23.241Z,5.50
2019-05-02T23:38:54.532Z,5.40
2019-05-02T23:41:25.911Z,5.40
2019-05-02T23:43:57.174Z,5.40
2019-05-02T23:46:28.528Z,5.30
2019-05-02T23:49:01.856Z,5.30
2019-05-02T23:51:32.723Z,5.20
2019-05-02T23:54:04.177Z,5.20
2019-05-02T23:56:35.402Z,5.20
2019-05-02T23:59:06.695Z,5.10
